createdAt,value
2018-12-11T00:00:27.209Z,65.10
2018-12-11T00:01:28.279Z,65.10
2018-12-11T00:02:29.255Z,65.50
2018-12-11T00:03:30.403Z,65.20
2018-12-11T00:04:31.566Z,65.20
2018-12-11T00:05:32.537Z,65.20
2018-12-11T00:06:33.612Z,65.10
2018-12-11T00:07:34.571Z,65.00
2018-12-11T00:08:35.571Z,65.20
2018-12-11T00:09:36.521Z,65.00
2018-12-11T00:10:37.471Z,64.90
2018-12-11T00:11:38.415Z,64.60
2018-12-11T00:12:39.503Z,64.90
2018-12-11T00:13:40.473Z,65.00
2018-12-11T00:14:41.438Z,64.90
2018-12-11T00:15:42.399Z,65.10
2018-12-11T00:16:43.361Z,65.20
2018-12-11T00:17:44.425Z,64.60
2018-12-11T00:18:45.383Z,64.80
2018-12-11T00:19:46.351Z,65.20
2018-12-11T00:20:47.315Z,64.60
2018-12-11T00:21:48.387Z,64.60
2018-12-11T00:22:49.348Z,64.90
2018-12-11T00:23:50.374Z,64.60
2018-12-11T00:24:51.323Z,64.50
2018-12-11T00:25:52.275Z,65.00
2018-12-11T00:26:53.258Z,64.90
2018-12-11T00:27:54.205Z,66.00
2018-12-11T00:28:55.270Z,66.40
2018-12-11T00:29:56.224Z,65.30
2018-12-11T00:30:57.191Z,65.20
2018-12-11T00:31:58.167Z,65.00
2018-12-11T00:32:59.147Z,64.60
2018-12-11T00:34:00.104Z,64.50
2018-12-11T00:35:01.263Z,64.90
2018-12-11T00:36:02.354Z,65.10
2018-12-11T00:37:03.519Z,65.30
2018-12-11T00:38:04.576Z,65.40
2018-12-11T00:39:05.683Z,65.50
2018-12-11T00:40:13.784Z,65.80
2018-12-11T00:41:14.964Z,65.50
2018-12-11T00:42:16.034Z,66.00
2018-12-11T00:43:16.992Z,65.70
2018-12-11T00:44:18.075Z,65.80
2018-12-11T00:45:19.140Z,65.80
2018-12-11T00:46:20.281Z,66.00
2018-12-11T00:47:21.251Z,65.80
2018-12-11T00:48:22.307Z,65.90
2018-12-11T00:49:23.252Z,66.30
2018-12-11T00:50:24.312Z,66.20
2018-12-11T00:51:25.269Z,66.40
2018-12-11T00:52:26.322Z,66.20
2018-12-11T00:53:27.535Z,66.10
2018-12-11T00:54:28.483Z,65.90
2018-12-11T00:55:29.747Z,66.00
2018-12-11T00:56:30.837Z,65.80
2018-12-11T00:57:31.972Z,66.00
2018-12-11T00:58:33.047Z,66.10
2018-12-11T00:59:34.007Z,66.20
2018-12-11T01:00:34.967Z,66.20
2018-12-11T01:01:36.130Z,65.70
2018-12-11T01:02:37.303Z,65.80
2018-12-11T01:03:38.368Z,65.70
2018-12-11T01:04:39.346Z,65.30
2018-12-11T01:05:47.392Z,65.40
2018-12-11T01:06:48.631Z,65.50
2018-12-11T01:07:49.667Z,65.60
2018-12-11T01:08:50.681Z,65.70
2018-12-11T01:09:51.644Z,65.60
2018-12-11T01:10:52.716Z,65.60
2018-12-11T01:11:53.717Z,65.90
2018-12-11T01:12:54.880Z,65.80
2018-12-11T01:13:55.940Z,65.90
2018-12-11T01:14:56.943Z,65.60
2018-12-11T01:15:57.897Z,65.80
2018-12-11T01:16:58.951Z,65.20
2018-12-11T01:18:00.300Z,66.50
2018-12-11T01:19:01.307Z,65.50
2018-12-11T01:20:03.588Z,64.80
2018-12-11T01:21:04.571Z,65.10
2018-12-11T01:22:05.747Z,64.90
2018-12-11T01:23:06.765Z,65.20
2018-12-11T01:24:07.729Z,65.40
2018-12-11T01:25:08.703Z,65.00
2018-12-11T01:26:09.656Z,65.40
2018-12-11T01:27:10.864Z,65.40
2018-12-11T01:28:11.823Z,65.40
2018-12-11T01:29:12.789Z,65.40
2018-12-11T01:30:13.740Z,65.20
2018-12-11T01:31:14.839Z,65.10
2018-12-11T01:32:15.947Z,64.80
2018-12-11T01:33:17.016Z,64.70
2018-12-11T01:34:17.958Z,64.80
2018-12-11T01:35:18.914Z,64.90
2018-12-11T01:36:20.015Z,64.70
2018-12-11T01:37:20.971Z,64.90
2018-12-11T01:38:22.034Z,65.60
2018-12-11T01:39:22.999Z,64.80
2018-12-11T01:40:23.971Z,64.90
2018-12-11T01:41:24.931Z,64.90
2018-12-11T01:42:25.995Z,64.50
2018-12-11T01:43:26.967Z,64.90
2018-12-11T01:44:28.059Z,64.80
2018-12-11T01:45:29.020Z,64.00
2018-12-11T01:46:30.197Z,64.50
2018-12-11T01:47:31.307Z,64.20
2018-12-11T01:48:32.521Z,64.20
2018-12-11T01:49:33.511Z,64.40
2018-12-11T01:50:34.631Z,64.60
2018-12-11T01:51:35.587Z,64.20
2018-12-11T01:52:36.553Z,64.60
2018-12-11T01:53:37.615Z,64.50
2018-12-11T01:54:38.684Z,64.50
2018-12-11T01:55:39.755Z,64.40
2018-12-11T01:56:40.832Z,64.50
2018-12-11T01:57:41.775Z,64.10
2018-12-11T01:58:42.728Z,64.10
2018-12-11T01:59:43.680Z,64.10
2018-12-11T02:00:44.648Z,64.00
2018-12-11T02:01:45.706Z,63.90
2018-12-11T02:02:46.663Z,64.00
2018-12-11T02:03:47.715Z,63.90
2018-12-11T02:04:48.679Z,64.00
2018-12-11T02:05:49.755Z,64.00
2018-12-11T02:06:50.743Z,64.10
2018-12-11T02:07:51.803Z,64.20
2018-12-11T02:08:52.986Z,64.30
2018-12-11T02:09:53.947Z,64.10
2018-12-11T02:10:55.023Z,64.00
2018-12-11T02:11:55.985Z,64.00
2018-12-11T02:12:56.931Z,64.10
2018-12-11T02:13:58.005Z,64.30
2018-12-11T02:14:58.969Z,64.60
2018-12-11T02:16:00.032Z,64.50
2018-12-11T02:17:01.088Z,64.50
2018-12-11T02:18:02.259Z,64.60
2018-12-11T02:19:03.531Z,64.30
2018-12-11T02:20:05.891Z,64.00
2018-12-11T02:21:06.848Z,63.90
2018-12-11T02:22:07.911Z,64.30
2018-12-11T02:23:08.875Z,64.30
2018-12-11T02:24:09.836Z,64.60
2018-12-11T02:25:11.015Z,64.50
2018-12-11T02:26:12.105Z,64.10
2018-12-11T02:27:13.311Z,64.10
2018-12-11T02:28:14.315Z,64.20
2018-12-11T02:29:15.271Z,64.70
2018-12-11T02:30:16.405Z,64.70
2018-12-11T02:31:17.557Z,64.40
2018-12-11T02:32:18.515Z,64.60
2018-12-11T02:33:19.581Z,64.30
2018-12-11T02:34:20.791Z,64.10
2018-12-11T02:35:21.957Z,64.00
2018-12-11T02:36:23.121Z,63.90
2018-12-11T02:37:24.287Z,63.90
2018-12-11T02:38:25.352Z,64.30
2018-12-11T02:39:26.319Z,63.90
2018-12-11T02:40:27.389Z,63.90
2018-12-11T02:41:28.445Z,64.00
2018-12-11T02:42:29.407Z,64.20
2018-12-11T02:43:30.481Z,63.90
2018-12-11T02:44:31.431Z,64.00
2018-12-11T02:45:32.404Z,64.30
2018-12-11T02:46:33.474Z,64.20
2018-12-11T02:47:34.699Z,64.10
2018-12-11T02:48:35.659Z,63.80
2018-12-11T02:49:36.607Z,63.90
2018-12-11T02:50:37.667Z,63.80
2018-12-11T02:51:38.739Z,64.00
2018-12-11T02:52:39.783Z,63.90
2018-12-11T02:53:40.963Z,63.80
2018-12-11T02:54:42.024Z,63.90
2018-12-11T02:55:43.084Z,63.90
2018-12-11T02:56:44.044Z,64.00
2018-12-11T02:57:45.102Z,63.90
2018-12-11T02:58:46.159Z,64.20
2018-12-11T02:59:47.115Z,63.90
2018-12-11T03:00:48.209Z,63.90
2018-12-11T03:01:49.271Z,64.10
2018-12-11T03:02:50.279Z,63.90
2018-12-11T03:03:51.240Z,63.80
2018-12-11T03:04:52.299Z,63.80
2018-12-11T03:05:53.319Z,63.80
2018-12-11T03:06:54.332Z,63.90
2018-12-11T03:07:55.291Z,63.80
2018-12-11T03:08:56.253Z,63.50
2018-12-11T03:09:57.224Z,63.60
2018-12-11T03:10:58.288Z,63.60
2018-12-11T03:11:59.243Z,63.90
2018-12-11T03:13:00.227Z,63.50
2018-12-11T03:14:01.490Z,63.40
2018-12-11T03:15:03.665Z,63.70
2018-12-11T03:16:04.735Z,63.30
2018-12-11T03:17:05.806Z,63.50
2018-12-11T03:18:06.872Z,63.70
2018-12-11T03:19:07.939Z,64.00
2018-12-11T03:20:08.900Z,63.40
2018-12-11T03:21:09.963Z,63.50
2018-12-11T03:22:10.914Z,63.50
2018-12-11T03:23:12.051Z,63.50
2018-12-11T03:24:13.067Z,63.60
2018-12-11T03:25:14.059Z,63.20
2018-12-11T03:26:15.157Z,63.20
2018-12-11T03:27:16.122Z,63.30
2018-12-11T03:28:17.182Z,63.40
2018-12-11T03:29:18.202Z,63.20
2018-12-11T03:30:19.413Z,63.30
2018-12-11T03:31:20.593Z,63.20
2018-12-11T03:32:21.677Z,63.30
2018-12-11T03:33:22.743Z,63.10
2018-12-11T03:34:23.715Z,63.40
2018-12-11T03:35:24.723Z,63.20
2018-12-11T03:36:25.784Z,63.00
2018-12-11T03:37:26.753Z,63.30
2018-12-11T03:38:27.758Z,63.20
2018-12-11T03:39:28.732Z,63.00
2018-12-11T03:40:30.009Z,63.00
2018-12-11T03:41:31.184Z,62.90
2018-12-11T03:42:32.171Z,62.70
2018-12-11T03:43:33.123Z,62.50
2018-12-11T03:44:34.287Z,62.30
2018-12-11T03:45:35.260Z,62.40
2018-12-11T03:46:36.272Z,62.10
2018-12-11T03:47:37.316Z,61.60
2018-12-11T03:48:38.379Z,62.10
2018-12-11T03:49:39.461Z,62.10
2018-12-11T03:50:40.439Z,61.90
2018-12-11T03:51:41.503Z,62.10
2018-12-11T03:52:42.478Z,61.50
2018-12-11T03:53:43.437Z,61.80
2018-12-11T03:54:44.391Z,62.10
2018-12-11T03:55:45.578Z,61.60
2018-12-11T03:56:46.575Z,61.60
2018-12-11T03:57:47.740Z,61.50
2018-12-11T03:58:48.703Z,61.50
2018-12-11T03:59:49.782Z,61.20
2018-12-11T04:00:50.868Z,61.70
2018-12-11T04:01:51.869Z,61.70
2018-12-11T04:02:52.863Z,62.00
2018-12-11T04:03:53.918Z,61.90
2018-12-11T04:04:54.975Z,62.10
2018-12-11T04:05:55.943Z,61.90
2018-12-11T04:06:56.921Z,62.20
2018-12-11T04:07:57.901Z,62.10
2018-12-11T04:08:58.969Z,62.50
2018-12-11T04:09:59.930Z,62.40
2018-12-11T04:11:00.891Z,62.50
2018-12-11T04:12:02.480Z,62.60
2018-12-11T04:13:03.754Z,62.50
2018-12-11T04:14:04.719Z,62.40
2018-12-11T04:15:06.090Z,62.30
2018-12-11T04:16:08.051Z,62.40
2018-12-11T04:17:09.120Z,62.00
2018-12-11T04:18:10.098Z,62.10
2018-12-11T04:19:11.170Z,63.30
2018-12-11T04:20:12.528Z,62.70
2018-12-11T04:21:13.603Z,62.70
2018-12-11T04:22:14.590Z,62.90
2018-12-11T04:23:15.553Z,62.80
2018-12-11T04:24:16.564Z,62.60
2018-12-11T04:25:17.523Z,62.90
2018-12-11T04:26:18.478Z,63.00
2018-12-11T04:27:19.448Z,63.20
2018-12-11T04:28:20.555Z,63.20
2018-12-11T04:29:21.512Z,62.90
2018-12-11T04:30:22.471Z,63.30
2018-12-11T04:31:23.436Z,63.10
2018-12-11T04:32:24.603Z,63.70
2018-12-11T04:33:25.567Z,63.50
2018-12-11T04:34:26.552Z,63.40
2018-12-11T04:35:27.623Z,63.70
2018-12-11T04:36:28.624Z,63.50
2018-12-11T04:37:29.590Z,63.70
2018-12-11T04:38:30.546Z,63.00
2018-12-11T04:39:34.005Z,63.50
2018-12-11T04:40:34.688Z,63.50
2018-12-11T04:41:35.635Z,63.30
2018-12-11T04:42:36.592Z,63.50
2018-12-11T04:43:37.551Z,64.20
2018-12-11T04:44:38.619Z,63.50
2018-12-11T04:45:39.598Z,63.60
2018-12-11T04:46:40.570Z,63.80
2018-12-11T04:47:41.549Z,63.70
2018-12-11T04:48:42.771Z,63.70
2018-12-11T04:49:43.743Z,63.40
2018-12-11T04:50:44.798Z,63.40
2018-12-11T04:51:45.867Z,63.50
2018-12-11T04:52:46.947Z,63.50
2018-12-11T04:53:47.965Z,63.40
2018-12-11T04:54:49.006Z,63.30
2018-12-11T04:55:50.189Z,63.00
2018-12-11T04:56:51.250Z,63.10
2018-12-11T04:57:52.316Z,63.30
2018-12-11T04:58:53.344Z,62.60
2018-12-11T04:59:54.307Z,62.40
2018-12-11T05:00:55.274Z,62.50
2018-12-11T05:01:56.250Z,62.40
2018-12-11T05:02:57.316Z,62.60
2018-12-11T05:03:58.267Z,62.90
2018-12-11T05:04:59.223Z,62.80
2018-12-11T05:06:00.295Z,63.00
2018-12-11T05:07:01.250Z,63.20
2018-12-11T05:08:04.425Z,62.50
2018-12-11T05:09:05.687Z,62.20
2018-12-11T05:10:06.879Z,62.50
2018-12-11T05:11:07.944Z,62.50
2018-12-11T05:12:15.827Z,62.40
2018-12-11T05:13:16.838Z,62.50
2018-12-11T05:14:17.819Z,62.40
2018-12-11T05:15:18.779Z,62.40
2018-12-11T05:16:19.906Z,62.40
2018-12-11T05:17:20.860Z,62.50
2018-12-11T05:18:21.808Z,62.20
2018-12-11T05:19:22.987Z,62.30
2018-12-11T05:20:23.941Z,62.30
2018-12-11T05:21:24.991Z,62.50
2018-12-11T05:22:25.943Z,62.60
2018-12-11T05:23:27.036Z,62.50
2018-12-11T05:24:28.099Z,62.60
2018-12-11T05:25:29.084Z,62.70
2018-12-11T05:26:30.155Z,62.60
2018-12-11T05:27:31.227Z,62.70
2018-12-11T05:28:32.344Z,62.70
2018-12-11T05:29:33.311Z,62.70
2018-12-11T05:30:34.374Z,62.80
2018-12-11T05:31:35.440Z,62.90
2018-12-11T05:32:36.408Z,62.90
2018-12-11T05:33:37.492Z,62.90
2018-12-11T05:34:38.457Z,63.10
2018-12-11T05:35:39.586Z,63.30
2018-12-11T05:36:40.595Z,63.60
2018-12-11T05:37:41.561Z,63.60
2018-12-11T05:38:42.515Z,63.90
2018-12-11T05:39:43.489Z,64.00
2018-12-11T05:40:44.443Z,64.00
2018-12-11T05:41:45.405Z,64.00
2018-12-11T05:42:46.630Z,64.00
2018-12-11T05:43:47.583Z,63.90
2018-12-11T05:44:48.549Z,64.00
2018-12-11T05:45:49.508Z,64.10
2018-12-11T05:46:50.490Z,64.50
2018-12-11T05:47:51.451Z,64.40
2018-12-11T05:48:52.418Z,64.40
2018-12-11T05:49:53.406Z,64.70
2018-12-11T05:50:54.375Z,64.70
2018-12-11T05:51:55.332Z,64.60
2018-12-11T05:52:56.401Z,64.70
2018-12-11T05:53:57.363Z,64.70
2018-12-11T05:54:58.327Z,64.60
2018-12-11T05:55:59.288Z,64.70
2018-12-11T05:57:00.582Z,64.70
2018-12-11T05:58:01.555Z,64.80
2018-12-11T05:59:02.751Z,64.80
2018-12-11T06:00:07.165Z,64.90
2018-12-11T06:01:08.234Z,65.20
2018-12-11T06:02:09.209Z,65.20
2018-12-11T06:03:10.204Z,65.30
2018-12-11T06:04:11.179Z,65.30
2018-12-11T06:05:12.261Z,65.40
2018-12-11T06:06:13.334Z,65.50
2018-12-11T06:07:14.275Z,65.40
2018-12-11T06:08:15.339Z,65.40
2018-12-11T06:09:16.404Z,65.30
2018-12-11T06:10:17.481Z,65.40
2018-12-11T06:11:18.473Z,65.30
2018-12-11T06:12:19.595Z,65.20
2018-12-11T06:13:20.553Z,65.40
2018-12-11T06:14:21.519Z,65.30
2018-12-11T06:15:22.486Z,65.40
2018-12-11T06:16:23.759Z,65.70
2018-12-11T06:17:24.714Z,65.50
2018-12-11T06:18:25.684Z,65.40
2018-12-11T06:19:26.642Z,65.50
2018-12-11T06:20:27.815Z,65.40
2018-12-11T06:21:28.772Z,65.30
2018-12-11T06:22:29.726Z,65.10
2018-12-11T06:23:30.673Z,64.80
2018-12-11T06:24:31.665Z,64.80
2018-12-11T06:25:32.627Z,65.00
2018-12-11T06:26:33.689Z,64.80
2018-12-11T06:27:34.642Z,64.80
2018-12-11T06:28:36.276Z,64.80
2018-12-11T06:29:37.365Z,64.90
2018-12-11T06:30:38.386Z,64.90
2018-12-11T06:31:39.461Z,65.30
2018-12-11T06:32:40.428Z,65.00
2018-12-11T06:33:41.396Z,65.10
2018-12-11T06:34:42.360Z,65.00
2018-12-11T06:35:43.439Z,65.00
2018-12-11T06:36:44.407Z,65.00
2018-12-11T06:37:45.358Z,64.90
2018-12-11T06:38:46.305Z,64.70
2018-12-11T06:39:47.280Z,64.90
2018-12-11T06:40:48.266Z,64.90
2018-12-11T06:41:49.223Z,65.00
2018-12-11T06:42:50.181Z,64.90
2018-12-11T06:43:51.379Z,64.70
2018-12-11T06:44:52.343Z,64.60
2018-12-11T06:45:53.434Z,64.70
2018-12-11T06:46:54.392Z,64.90
2018-12-11T06:47:55.348Z,64.90
2018-12-11T06:48:56.295Z,64.90
2018-12-11T06:49:57.255Z,64.90
2018-12-11T06:50:58.313Z,64.70
2018-12-11T06:51:59.284Z,64.90
2018-12-11T06:53:00.244Z,65.00
2018-12-11T06:54:01.210Z,65.00
2018-12-11T06:55:02.399Z,65.00
2018-12-11T06:56:03.363Z,65.00
2018-12-11T06:57:04.331Z,65.00
2018-12-11T06:58:05.313Z,65.10
2018-12-11T06:59:06.314Z,65.30
2018-12-11T07:00:07.803Z,65.40
2018-12-11T07:01:08.863Z,65.10
2018-12-11T07:02:09.937Z,65.20
2018-12-11T07:03:10.908Z,65.10
2018-12-11T07:04:11.871Z,64.80
2018-12-11T07:05:12.881Z,64.80
2018-12-11T07:06:13.963Z,65.30
2018-12-11T07:07:14.932Z,65.30
2018-12-11T07:08:17.018Z,64.30
2018-12-11T07:09:18.119Z,64.50
2018-12-11T07:10:19.095Z,64.40
2018-12-11T07:11:20.124Z,64.40
2018-12-11T07:12:21.205Z,64.00
2018-12-11T07:13:22.171Z,64.30
2018-12-11T07:14:23.175Z,64.20
2018-12-11T07:15:24.131Z,64.10
2018-12-11T07:16:25.087Z,63.80
2018-12-11T07:17:26.056Z,63.90
2018-12-11T07:18:27.042Z,64.10
2018-12-11T07:19:28.105Z,63.50
2018-12-11T07:20:29.157Z,63.60
2018-12-11T07:21:30.214Z,63.80
2018-12-11T07:22:31.171Z,63.40
2018-12-11T07:23:32.124Z,63.60
2018-12-11T07:24:33.075Z,63.20
2018-12-11T07:25:34.145Z,63.70
2018-12-11T07:26:35.219Z,63.80
2018-12-11T07:27:36.179Z,63.90
2018-12-11T07:28:37.254Z,64.00
2018-12-11T07:29:38.221Z,64.10
2018-12-11T07:30:39.311Z,64.60
2018-12-11T07:31:47.415Z,63.90
2018-12-11T07:32:48.375Z,64.00
2018-12-11T07:33:51.053Z,63.80
2018-12-11T07:34:52.099Z,64.10
2018-12-11T07:35:53.218Z,64.00
2018-12-11T07:36:54.337Z,64.10
2018-12-11T07:37:55.376Z,64.00
2018-12-11T07:38:56.331Z,64.00
2018-12-11T07:39:57.299Z,64.10
2018-12-11T07:40:58.263Z,64.40
2018-12-11T07:41:59.207Z,64.50
2018-12-11T07:43:00.287Z,64.40
2018-12-11T07:44:01.621Z,64.20
2018-12-11T07:45:03.201Z,64.40
2018-12-11T07:46:04.299Z,64.20
2018-12-11T07:47:05.355Z,64.50
2018-12-11T07:48:06.312Z,64.10
2018-12-11T07:49:07.279Z,64.10
2018-12-11T07:50:08.354Z,64.00
2018-12-11T07:51:09.320Z,64.00
2018-12-11T07:52:10.268Z,64.10
2018-12-11T07:53:11.219Z,64.00
2018-12-11T07:54:12.164Z,64.10
2018-12-11T07:55:13.351Z,64.30
2018-12-11T07:56:14.351Z,63.90
2018-12-11T07:57:15.434Z,63.80
2018-12-11T07:58:16.402Z,64.10
2018-12-11T07:59:17.343Z,63.60
2018-12-11T08:00:18.487Z,63.60
2018-12-11T08:01:19.447Z,63.70
2018-12-11T08:02:20.538Z,63.70
2018-12-11T08:03:21.496Z,63.10
2018-12-11T08:04:22.454Z,63.00
2018-12-11T08:05:23.419Z,63.00
2018-12-11T08:06:24.390Z,63.30
2018-12-11T08:07:25.459Z,63.30
2018-12-11T08:08:26.423Z,63.40
2018-12-11T08:09:27.398Z,63.40
2018-12-11T08:10:28.515Z,63.40
2018-12-11T08:11:29.560Z,63.40
2018-12-11T08:12:30.521Z,63.40
2018-12-11T08:13:31.629Z,63.30
2018-12-11T08:14:32.691Z,63.20
2018-12-11T08:15:33.655Z,63.00
2018-12-11T08:16:34.739Z,62.90
2018-12-11T08:17:35.685Z,63.20
2018-12-11T08:18:37.660Z,63.20
2018-12-11T08:19:38.642Z,63.30
2018-12-11T08:20:46.929Z,63.40
2018-12-11T08:21:47.888Z,63.50
2018-12-11T08:22:48.900Z,63.60
2018-12-11T08:23:49.853Z,63.60
2018-12-11T08:24:51.034Z,64.30
2018-12-11T08:25:52.020Z,63.90
2018-12-11T08:26:53.275Z,64.10
2018-12-11T08:27:54.234Z,64.00
2018-12-11T08:28:55.184Z,64.10
2018-12-11T08:29:56.289Z,64.10
2018-12-11T08:30:57.254Z,64.10
2018-12-11T08:31:58.217Z,64.10
2018-12-11T08:32:59.870Z,64.10
2018-12-11T08:34:00.948Z,64.10
2018-12-11T08:35:02.216Z,64.00
2018-12-11T08:36:03.323Z,64.00
2018-12-11T08:37:04.308Z,64.00
2018-12-11T08:38:05.270Z,64.10
2018-12-11T08:39:06.338Z,64.10
2018-12-11T08:40:07.355Z,64.40
2018-12-11T08:41:08.914Z,64.40
2018-12-11T08:42:09.867Z,64.40
2018-12-11T08:43:10.932Z,64.20
2018-12-11T08:44:11.887Z,64.00
2018-12-11T08:45:12.858Z,64.10
2018-12-11T08:46:14.019Z,64.10
2018-12-11T08:47:14.983Z,64.10
2018-12-11T08:48:15.924Z,64.30
2018-12-11T08:49:21.364Z,64.10
2018-12-11T08:50:22.360Z,64.00
2018-12-11T08:51:23.415Z,63.80
2018-12-11T08:52:24.375Z,63.80
2018-12-11T08:53:25.336Z,63.30
2018-12-11T08:54:26.327Z,64.40
2018-12-11T08:55:27.427Z,63.50
2018-12-11T08:56:28.500Z,63.30
2018-12-11T08:57:29.462Z,63.10
2018-12-11T08:58:30.429Z,63.00
2018-12-11T08:59:31.599Z,63.10
2018-12-11T09:00:32.568Z,62.90
2018-12-11T09:01:33.641Z,62.80
2018-12-11T09:02:34.703Z,62.20
2018-12-11T09:03:35.673Z,62.50
2018-12-11T09:04:36.632Z,63.00
2018-12-11T09:05:37.622Z,62.90
2018-12-11T09:06:38.667Z,62.90
2018-12-11T09:07:40.056Z,62.80
2018-12-11T09:08:41.109Z,62.70
2018-12-11T09:09:42.072Z,62.80
2018-12-11T09:10:43.071Z,62.80
2018-12-11T09:11:44.049Z,63.00
2018-12-11T09:12:45.120Z,63.00
2018-12-11T09:13:46.083Z,62.70
2018-12-11T09:14:47.164Z,63.10
2018-12-11T09:15:48.340Z,62.50
2018-12-11T09:16:49.351Z,63.00
2018-12-11T09:17:50.348Z,63.10
2018-12-11T09:18:51.304Z,63.30
2018-12-11T09:19:52.333Z,63.30
2018-12-11T09:20:53.427Z,63.60
2018-12-11T09:21:54.383Z,63.40
2018-12-11T09:22:55.349Z,63.30
2018-12-11T09:23:56.340Z,63.40
2018-12-11T09:24:57.500Z,63.40
2018-12-11T09:25:58.565Z,63.50
2018-12-11T09:26:59.515Z,63.70
2018-12-11T09:28:00.483Z,63.50
2018-12-11T09:29:01.452Z,63.70
2018-12-11T09:30:04.861Z,63.80
2018-12-11T09:31:05.839Z,63.90
2018-12-11T09:32:06.810Z,63.70
2018-12-11T09:33:07.776Z,63.70
2018-12-11T09:34:08.757Z,63.80
2018-12-11T09:35:09.744Z,63.60
2018-12-11T09:36:10.832Z,63.50
2018-12-11T09:37:11.895Z,63.50
2018-12-11T09:38:12.901Z,63.40
2018-12-11T09:39:13.963Z,62.90
2018-12-11T09:40:15.030Z,63.00
2018-12-11T09:41:16.122Z,63.30
2018-12-11T09:42:17.191Z,63.30
2018-12-11T09:43:18.186Z,63.30
2018-12-11T09:44:19.135Z,63.20
2018-12-11T09:45:20.204Z,63.40
2018-12-11T09:46:21.171Z,63.30
2018-12-11T09:47:22.135Z,63.20
2018-12-11T09:48:23.244Z,63.30
2018-12-11T09:49:24.325Z,63.40
2018-12-11T09:50:25.287Z,63.60
2018-12-11T09:51:26.262Z,63.30
2018-12-11T09:52:27.531Z,63.70
2018-12-11T09:53:28.517Z,63.70
2018-12-11T09:54:29.496Z,64.00
2018-12-11T09:55:30.456Z,65.00
2018-12-11T09:56:31.424Z,64.00
2018-12-11T09:57:32.495Z,64.40
2018-12-11T09:58:33.500Z,64.40
2018-12-11T09:59:34.451Z,64.30
2018-12-11T10:00:35.657Z,64.10
2018-12-11T10:01:36.696Z,64.10
2018-12-11T10:02:37.771Z,64.20
2018-12-11T10:03:38.760Z,64.20
2018-12-11T10:04:39.938Z,64.60
2018-12-11T10:05:41.012Z,63.80
2018-12-11T10:06:41.979Z,63.90
2018-12-11T10:07:42.969Z,64.00
2018-12-11T10:08:43.927Z,64.20
2018-12-11T10:09:44.995Z,63.40
2018-12-11T10:10:46.347Z,63.90
2018-12-11T10:11:47.448Z,63.60
2018-12-11T10:12:48.667Z,63.70
2018-12-11T10:13:49.655Z,63.50
2018-12-11T10:14:50.632Z,63.40
2018-12-11T10:15:51.739Z,63.00
2018-12-11T10:16:52.725Z,63.30
2018-12-11T10:17:53.718Z,63.00
2018-12-11T10:18:55.090Z,62.90
2018-12-11T10:19:56.183Z,62.70
2018-12-11T10:20:57.148Z,63.00
2018-12-11T10:21:58.215Z,63.10
2018-12-11T10:23:00.181Z,62.50
2018-12-11T10:24:01.267Z,62.40
2018-12-11T10:25:02.663Z,62.20
2018-12-11T10:26:03.635Z,62.70
2018-12-11T10:27:04.695Z,62.50
2018-12-11T10:28:05.644Z,62.50
2018-12-11T10:29:06.699Z,62.70
2018-12-11T10:30:08.634Z,62.70
2018-12-11T10:31:09.615Z,62.70
2018-12-11T10:32:10.687Z,62.70
2018-12-11T10:33:11.650Z,62.00
2018-12-11T10:34:12.771Z,62.30
2018-12-11T10:35:13.788Z,62.30
2018-12-11T10:36:14.767Z,62.30
2018-12-11T10:37:15.747Z,62.40
2018-12-11T10:38:16.700Z,62.40
2018-12-11T10:39:17.663Z,62.50
2018-12-11T10:40:18.629Z,62.60
2018-12-11T10:41:19.715Z,62.60
2018-12-11T10:42:20.678Z,62.50
2018-12-11T10:43:21.759Z,62.60
2018-12-11T10:44:22.712Z,62.70
2018-12-11T10:45:23.677Z,62.60
2018-12-11T10:46:24.839Z,62.60
2018-12-11T10:47:25.799Z,62.90
2018-12-11T10:48:26.789Z,63.00
2018-12-11T10:49:27.951Z,63.00
2018-12-11T10:50:29.003Z,63.00
2018-12-11T10:51:29.985Z,63.20
2018-12-11T10:52:31.043Z,63.20
2018-12-11T10:53:32.004Z,63.10
2018-12-11T10:54:32.960Z,63.20
2018-12-11T10:55:33.927Z,63.10
2018-12-11T10:56:34.875Z,62.90
2018-12-11T10:57:36.039Z,62.30
2018-12-11T10:58:36.991Z,62.50
2018-12-11T10:59:38.047Z,62.90
2018-12-11T11:00:43.316Z,62.90
2018-12-11T11:01:46.143Z,62.80
2018-12-11T11:03:00.155Z,63.50
2018-12-11T11:04:01.427Z,63.10
2018-12-11T11:05:03.397Z,63.10
2018-12-11T11:06:04.540Z,62.90
2018-12-11T11:07:05.505Z,62.80
2018-12-11T11:08:06.630Z,62.90
2018-12-11T11:09:07.765Z,62.60
2018-12-11T11:10:08.968Z,62.30
2018-12-11T11:11:10.142Z,62.10
2018-12-11T11:12:11.146Z,62.10
2018-12-11T11:13:12.205Z,62.40
2018-12-11T11:14:13.270Z,62.50
2018-12-11T11:15:14.233Z,62.00
2018-12-11T11:16:15.527Z,61.90
2018-12-11T11:17:16.482Z,61.40
2018-12-11T11:18:17.644Z,62.60
2018-12-11T11:19:18.711Z,61.60
2018-12-11T11:20:19.767Z,61.90
2018-12-11T11:21:20.724Z,62.00
2018-12-11T11:22:21.791Z,61.60
2018-12-11T11:23:22.856Z,62.00
2018-12-11T11:24:23.846Z,61.50
2018-12-11T11:25:24.815Z,60.60
2018-12-11T11:26:25.919Z,61.20
2018-12-11T11:27:26.879Z,61.30
2018-12-11T11:28:27.936Z,61.10
2018-12-11T11:29:29.002Z,61.00
2018-12-11T11:30:30.118Z,60.60
2018-12-11T11:31:31.296Z,60.60
2018-12-11T11:32:32.330Z,60.50
2018-12-11T11:33:33.436Z,60.60
2018-12-11T11:34:37.154Z,60.40
2018-12-11T11:35:38.146Z,60.50
2018-12-11T11:36:39.160Z,60.40
2018-12-11T11:37:40.126Z,60.20
2018-12-11T11:38:41.193Z,61.00
2018-12-11T11:39:42.178Z,60.90
2018-12-11T11:40:43.151Z,61.30
2018-12-11T11:41:44.123Z,61.60
2018-12-11T11:42:45.304Z,61.60
2018-12-11T11:43:46.247Z,61.80
2018-12-11T11:44:47.613Z,61.50
2018-12-11T11:45:48.681Z,61.80
2018-12-11T11:46:49.643Z,61.40
2018-12-11T11:47:50.627Z,61.30
2018-12-11T11:48:51.588Z,61.20
2018-12-11T11:49:52.595Z,61.30
2018-12-11T11:50:53.680Z,61.30
2018-12-11T11:51:54.648Z,60.80
2018-12-11T11:52:55.647Z,60.90
2018-12-11T11:53:56.607Z,60.70
2018-12-11T11:54:57.555Z,60.80
2018-12-11T11:55:58.719Z,61.00
2018-12-11T11:56:59.792Z,61.20
2018-12-11T11:58:00.849Z,60.90
2018-12-11T11:59:02.031Z,60.30
2018-12-11T12:00:06.307Z,59.80
2018-12-11T12:01:07.267Z,60.30
2018-12-11T12:02:08.339Z,60.40
2018-12-11T12:03:09.296Z,60.30
2018-12-11T12:04:10.243Z,60.30
2018-12-11T12:05:11.200Z,60.20
2018-12-11T12:06:12.260Z,60.20
2018-12-11T12:07:13.206Z,60.20
2018-12-11T12:08:14.167Z,60.20
2018-12-11T12:09:15.119Z,60.30
2018-12-11T12:10:16.390Z,60.20
2018-12-11T12:11:17.339Z,60.30
2018-12-11T12:12:18.348Z,60.30
2018-12-11T12:13:19.343Z,60.30
2018-12-11T12:14:20.351Z,60.30
2018-12-11T12:15:21.305Z,60.40
2018-12-11T12:16:22.395Z,60.30
2018-12-11T12:17:23.374Z,60.00
2018-12-11T12:18:24.339Z,59.90
2018-12-11T12:19:25.337Z,59.70
2018-12-11T12:20:26.411Z,59.80
2018-12-11T12:21:27.371Z,59.40
2018-12-11T12:22:28.336Z,59.70
2018-12-11T12:23:29.403Z,59.20
2018-12-11T12:24:30.359Z,59.60
2018-12-11T12:25:31.314Z,59.10
2018-12-11T12:26:32.271Z,59.40
2018-12-11T12:27:33.347Z,59.00
2018-12-11T12:28:34.400Z,59.20
2018-12-11T12:29:35.367Z,59.00
2018-12-11T12:30:36.538Z,58.80
2018-12-11T12:31:37.499Z,59.30
2018-12-11T12:32:38.497Z,58.50
2018-12-11T12:33:39.473Z,58.20
2018-12-11T12:34:40.427Z,58.50
2018-12-11T12:35:41.386Z,58.70
2018-12-11T12:36:42.362Z,58.80
2018-12-11T12:37:43.323Z,58.30
2018-12-11T12:38:44.391Z,58.10
2018-12-11T12:39:45.339Z,58.20
2018-12-11T12:40:46.292Z,57.90
2018-12-11T12:41:47.243Z,58.20
2018-12-11T12:42:48.195Z,58.50
2018-12-11T12:43:49.163Z,58.30
2018-12-11T12:44:50.127Z,58.60
2018-12-11T12:45:51.112Z,58.70
2018-12-11T12:46:52.073Z,59.00
2018-12-11T12:47:53.023Z,59.10
2018-12-11T12:48:53.991Z,59.00
2018-12-11T12:49:55.059Z,58.80
2018-12-11T12:50:56.111Z,58.70
2018-12-11T12:51:57.142Z,59.10
2018-12-11T12:52:58.102Z,58.90
2018-12-11T12:53:59.062Z,59.10
2018-12-11T12:55:00.024Z,59.40
2018-12-11T12:56:01.026Z,59.60
2018-12-11T12:57:02.088Z,59.30
2018-12-11T12:58:03.159Z,59.50
2018-12-11T12:59:04.345Z,59.80
2018-12-11T13:00:07.731Z,59.70
2018-12-11T13:01:08.747Z,59.80
2018-12-11T13:02:09.884Z,60.10
2018-12-11T13:03:18.012Z,60.00
2018-12-11T13:04:19.072Z,59.90
2018-12-11T13:05:20.144Z,59.90
2018-12-11T13:06:21.481Z,60.10
2018-12-11T13:07:22.479Z,60.50